createdAt,value
2023-02-28T00:01:15.155Z,-0.77
2023-02-28T00:03:41.749Z,-0.78
2023-02-28T00:06:08.521Z,-0.82
2023-02-28T00:08:35.000Z,-0.84
2023-02-28T00:11:05.741Z,-0.83
2023-02-28T00:13:32.431Z,-0.67
2023-02-28T00:16:20.023Z,-0.71
2023-02-28T00:18:48.298Z,-0.67
2023-02-28T00:21:15.004Z,-0.76
2023-02-28T00:23:42.139Z,-0.70
2023-02-28T00:26:08.637Z,-0.78
2023-02-28T00:28:35.139Z,-0.72
2023-02-28T00:31:01.685Z,-0.81
2023-02-28T00:33:28.728Z,-0.90
2023-02-28T00:36:06.138Z,-0.94
2023-02-28T00:38:32.614Z,-1.01
2023-02-28T00:40:59.575Z,-1.06
2023-02-28T00:43:26.028Z,-0.96
2023-02-28T00:45:52.543Z,-1.00
2023-02-28T00:48:19.022Z,-0.96
2023-02-28T00:50:45.502Z,-1.01
2023-02-28T00:53:11.961Z,-1.01
2023-02-28T00:55:38.466Z,-1.08
2023-02-28T00:58:04.937Z,-1.30
2023-02-28T01:00:31.418Z,-1.32
2023-02-28T01:02:57.876Z,-1.43
2023-02-28T01:05:24.801Z,-1.42
2023-02-28T01:07:51.285Z,-1.34
2023-02-28T01:10:17.742Z,-1.39
2023-02-28T01:12:44.209Z,-1.30
2023-02-28T01:15:13.743Z,-1.38
2023-02-28T01:17:40.215Z,-1.38
2023-02-28T01:20:07.206Z,-1.40
2023-02-28T01:22:33.714Z,-1.45
2023-02-28T01:25:00.175Z,-1.52
2023-02-28T01:27:27.507Z,-1.31
2023-02-28T01:29:53.966Z,-1.37
2023-02-28T01:32:20.565Z,-1.56
2023-02-28T01:34:47.056Z,-1.75
2023-02-28T01:37:13.534Z,-1.80
2023-02-28T01:39:39.994Z,-1.69
2023-02-28T01:42:06.470Z,-1.88
2023-02-28T01:44:55.807Z,-1.87
2023-02-28T01:47:22.458Z,-1.73
2023-02-28T01:49:48.917Z,-1.67
2023-02-28T01:52:18.881Z,-1.64
2023-02-28T01:54:54.380Z,-1.77
2023-02-28T01:57:24.273Z,-1.94
2023-02-28T02:00:15.257Z,-2.05
2023-02-28T02:02:47.653Z,-2.11
2023-02-28T02:05:22.316Z,-1.92
2023-02-28T02:07:52.451Z,-1.85
2023-02-28T02:10:20.383Z,-1.90
2023-02-28T02:13:12.128Z,-1.90
2023-02-28T02:16:03.544Z,-2.07
2023-02-28T02:18:47.604Z,-2.10
2023-02-28T02:21:28.933Z,-2.48
2023-02-28T02:24:20.328Z,-2.29
2023-02-28T02:27:07.166Z,-2.26
2023-02-28T02:30:07.527Z,-2.37
2023-02-28T02:33:08.021Z,-2.38
2023-02-28T02:36:08.433Z,-2.35
2023-02-28T02:38:45.622Z,-2.38
2023-02-28T02:41:14.967Z,-2.54
2023-02-28T02:43:48.881Z,-2.57
2023-02-28T02:46:18.783Z,-2.60
2023-02-28T02:48:45.280Z,-2.53
2023-02-28T02:51:14.761Z,-2.58
2023-02-28T02:54:03.414Z,-2.78
2023-02-28T02:56:30.219Z,-3.07
2023-02-28T02:58:58.120Z,-2.78
2023-02-28T03:01:30.720Z,-2.72
2023-02-28T03:04:05.926Z,-2.71
2023-02-28T03:06:32.428Z,-2.53
2023-02-28T03:08:58.887Z,-2.56
2023-02-28T03:11:25.400Z,-2.72
2023-02-28T03:14:10.758Z,-2.69
2023-02-28T03:16:58.509Z,-2.87
2023-02-28T03:19:53.988Z,-2.76
2023-02-28T03:22:58.176Z,-2.70
2023-02-28T03:25:35.674Z,-2.48
2023-02-28T03:28:19.594Z,-2.49
2023-02-28T03:31:17.457Z,-2.34
2023-02-28T03:33:47.686Z,-2.53
2023-02-28T03:36:18.837Z,-2.48
2023-02-28T03:38:53.965Z,-2.55
2023-02-28T03:41:22.282Z,-2.61
2023-02-28T03:43:55.004Z,-2.76
2023-02-28T03:46:23.287Z,-2.54
2023-02-28T03:48:56.830Z,-2.67
2023-02-28T03:51:24.137Z,-2.85
2023-02-28T03:53:55.583Z,-2.75
2023-02-28T03:56:24.362Z,-2.78
2023-02-28T03:59:01.749Z,-2.72
2023-02-28T04:01:37.047Z,-2.77
2023-02-28T04:04:03.629Z,-2.72
2023-02-28T04:06:31.541Z,-2.65
2023-02-28T04:08:58.055Z,-2.63
2023-02-28T04:11:41.719Z,-2.67
2023-02-28T04:14:08.798Z,-2.55
2023-02-28T04:16:37.058Z,-2.59
2023-02-28T04:19:05.877Z,-2.60
2023-02-28T04:21:34.092Z,-2.66
2023-02-28T04:24:01.597Z,-2.45
2023-02-28T04:26:31.990Z,-2.42
2023-02-28T04:28:58.972Z,-2.48
2023-02-28T04:31:25.477Z,-2.56
2023-02-28T04:33:52.030Z,-2.62
2023-02-28T04:36:21.580Z,-2.57
2023-02-28T04:38:48.062Z,-2.53
2023-02-28T04:41:14.540Z,-2.34
2023-02-28T04:43:41.025Z,-2.31
2023-02-28T04:46:07.722Z,-2.20
2023-02-28T04:48:36.065Z,-2.31
2023-02-28T04:51:03.334Z,-2.35
2023-02-28T04:53:30.184Z,-2.39
2023-02-28T04:55:59.441Z,-2.24
2023-02-28T04:58:25.945Z,-2.34
2023-02-28T05:00:53.286Z,-2.40
2023-02-28T05:03:21.655Z,-2.59
2023-02-28T05:05:48.129Z,-2.71
2023-02-28T05:08:14.809Z,-2.86
2023-02-28T05:10:41.603Z,-3.02
2023-02-28T05:13:09.765Z,-3.06
2023-02-28T05:15:36.220Z,-2.93
2023-02-28T05:18:02.737Z,-2.92
2023-02-28T05:20:29.200Z,-2.94
2023-02-28T05:22:55.673Z,-2.83
2023-02-28T05:25:23.037Z,-3.09
2023-02-28T05:27:49.960Z,-3.24
2023-02-28T05:30:16.669Z,-3.42
2023-02-28T05:32:45.910Z,-3.15
2023-02-28T05:35:12.393Z,-3.04
2023-02-28T05:37:39.174Z,-3.08
2023-02-28T05:40:12.420Z,-3.11
2023-02-28T05:42:38.931Z,-3.34
2023-02-28T05:45:05.973Z,-3.40
2023-02-28T05:47:32.432Z,-3.43
2023-02-28T05:49:58.893Z,-3.09
2023-02-28T05:52:25.414Z,-3.04
2023-02-28T05:54:51.885Z,-3.09
2023-02-28T05:57:24.333Z,-2.98
2023-02-28T05:59:51.446Z,-2.82
2023-02-28T06:02:18.138Z,-3.13
2023-02-28T06:04:44.702Z,-3.37
2023-02-28T06:07:11.404Z,-3.45
2023-02-28T06:09:37.999Z,-3.22
2023-02-28T06:12:06.470Z,-3.50
2023-02-28T06:14:33.394Z,-3.51
2023-02-28T06:17:00.528Z,-3.22
2023-02-28T06:19:27.060Z,-3.46
2023-02-28T06:21:54.101Z,-3.27
2023-02-28T06:24:21.451Z,-3.15
2023-02-28T06:26:47.916Z,-3.09
2023-02-28T06:29:17.977Z,-3.03
2023-02-28T06:31:47.796Z,-3.04
2023-02-28T06:34:14.498Z,-2.77
2023-02-28T06:36:41.786Z,-2.69
2023-02-28T06:39:08.517Z,-2.51
2023-02-28T06:41:53.756Z,-2.54
2023-02-28T06:44:21.614Z,-2.55
2023-02-28T06:46:48.089Z,-2.32
2023-02-28T06:49:14.716Z,-2.17
2023-02-28T06:51:45.905Z,-1.86
2023-02-28T06:54:12.470Z,-1.74
2023-02-28T06:56:38.993Z,-1.71
2023-02-28T06:59:05.510Z,-1.47
2023-02-28T07:01:33.725Z,-1.58
2023-02-28T07:04:01.029Z,-1.54
2023-02-28T07:06:27.522Z,-1.53
2023-02-28T07:08:54.208Z,-1.59
2023-02-28T07:11:23.335Z,-1.49
2023-02-28T07:13:51.844Z,-1.44
2023-02-28T07:16:18.393Z,-1.38
2023-02-28T07:18:45.020Z,-1.38
2023-02-28T07:21:11.515Z,-1.52
2023-02-28T07:23:40.790Z,-1.45
2023-02-28T07:26:07.642Z,-1.47
2023-02-28T07:28:34.100Z,-1.46
2023-02-28T07:31:05.872Z,-1.48
2023-02-28T07:33:32.386Z,-1.42
2023-02-28T07:36:05.146Z,-1.36
2023-02-28T07:38:31.843Z,-1.34
2023-02-28T07:40:58.298Z,-1.42
2023-02-28T07:43:24.769Z,-1.43
2023-02-28T07:45:51.283Z,-1.33
2023-02-28T07:48:17.766Z,-1.24
2023-02-28T07:50:44.222Z,-1.20
2023-02-28T07:53:10.782Z,-1.03
2023-02-28T07:55:37.282Z,-0.96
2023-02-28T07:58:03.821Z,-0.92
2023-02-28T08:00:31.949Z,-0.87
2023-02-28T08:02:58.981Z,-0.56
2023-02-28T08:05:25.506Z,-0.50
2023-02-28T08:07:52.242Z,-0.39
2023-02-28T08:10:18.744Z,-0.45
2023-02-28T08:12:45.194Z,-0.64
2023-02-28T08:15:11.763Z,-0.65
2023-02-28T08:17:38.316Z,-0.72
2023-02-28T08:20:05.315Z,-0.53
2023-02-28T08:22:33.044Z,-0.49
2023-02-28T08:25:04.972Z,-0.50
2023-02-28T08:27:32.043Z,-0.49
2023-02-28T08:29:58.499Z,-0.45
2023-02-28T08:32:29.904Z,-0.49
2023-02-28T08:34:56.750Z,-0.46
2023-02-28T08:37:23.240Z,-0.42
2023-02-28T08:39:49.707Z,-0.48
2023-02-28T08:42:16.151Z,-0.35
2023-02-28T08:44:42.618Z,-0.41
2023-02-28T08:47:09.098Z,-0.37
2023-02-28T08:49:35.555Z,-0.18
2023-02-28T08:52:02.069Z,-0.22
2023-02-28T08:54:31.603Z,-0.17
2023-02-28T08:56:58.085Z,-0.10
2023-02-28T08:59:24.563Z,-0.13
2023-02-28T09:01:51.027Z,-0.08
2023-02-28T09:04:19.900Z,0.06
2023-02-28T09:06:47.136Z,0.13
2023-02-28T09:09:13.663Z,0.31
2023-02-28T09:11:40.113Z,0.40
2023-02-28T09:14:06.577Z,0.34
2023-02-28T09:16:33.833Z,0.54
2023-02-28T09:19:00.519Z,0.59
2023-02-28T09:21:27.274Z,0.53
2023-02-28T09:23:53.889Z,0.51
2023-02-28T09:26:25.525Z,0.59
2023-02-28T09:28:52.168Z,0.70
2023-02-28T09:31:21.961Z,0.81
2023-02-28T09:33:49.786Z,0.84
2023-02-28T09:36:16.351Z,0.91
2023-02-28T09:38:43.630Z,0.84
2023-02-28T09:41:15.926Z,0.78
2023-02-28T09:43:45.364Z,0.87
2023-02-28T09:46:41.596Z,0.71
2023-02-28T09:49:12.096Z,0.63
2023-02-28T09:51:52.392Z,0.82
2023-02-28T09:54:20.996Z,0.88
2023-02-28T09:57:07.857Z,0.78
2023-02-28T09:59:40.276Z,0.76
2023-02-28T10:02:29.539Z,0.60
2023-02-28T10:04:58.584Z,0.68
2023-02-28T10:08:05.934Z,0.60
2023-02-28T10:10:43.761Z,0.83
2023-02-28T10:13:34.720Z,0.90
2023-02-28T10:16:33.188Z,0.76
2023-02-28T10:19:17.869Z,0.74
2023-02-28T10:21:51.888Z,0.78
2023-02-28T10:24:29.836Z,1.26
2023-02-28T10:27:00.769Z,1.71
2023-02-28T10:29:28.508Z,1.41
2023-02-28T10:31:54.977Z,1.29
2023-02-28T10:34:21.466Z,1.11
2023-02-28T10:36:47.911Z,0.82
2023-02-28T10:39:36.848Z,0.84
2023-02-28T10:42:03.340Z,0.61
2023-02-28T10:44:29.819Z,0.47
2023-02-28T10:46:56.349Z,0.54
2023-02-28T10:49:23.538Z,0.68
2023-02-28T10:51:55.154Z,0.75
2023-02-28T10:54:25.468Z,1.09
2023-02-28T10:57:19.783Z,1.42
2023-02-28T10:59:46.518Z,1.54
2023-02-28T11:02:31.161Z,1.70
2023-02-28T11:04:57.628Z,1.79
2023-02-28T11:07:25.752Z,2.10
2023-02-28T11:09:57.844Z,2.08
2023-02-28T11:12:29.340Z,2.35
2023-02-28T11:14:58.053Z,2.54
2023-02-28T11:17:29.476Z,2.66
2023-02-28T11:20:04.394Z,2.77
2023-02-28T11:22:32.640Z,2.90
2023-02-28T11:25:00.992Z,3.44
2023-02-28T11:27:30.373Z,3.46
2023-02-28T11:29:56.887Z,3.62
2023-02-28T11:32:29.820Z,3.13
2023-02-28T11:35:11.583Z,3.15
2023-02-28T11:37:38.392Z,2.74
2023-02-28T11:40:22.846Z,2.61
2023-02-28T11:43:18.997Z,2.26
2023-02-28T11:46:47.302Z,2.04
2023-02-28T11:50:00.598Z,2.09
2023-02-28T11:53:01.409Z,2.06
2023-02-28T11:55:36.714Z,2.59
2023-02-28T11:58:15.328Z,3.04
2023-02-28T12:01:04.292Z,3.43
2023-02-28T12:03:44.876Z,3.40
2023-02-28T12:06:37.878Z,3.80
2023-02-28T12:09:10.471Z,3.77
2023-02-28T12:11:53.715Z,4.20
2023-02-28T12:14:45.034Z,4.47
2023-02-28T12:17:23.165Z,4.17
2023-02-28T12:20:26.559Z,4.23
2023-02-28T12:22:55.944Z,3.86
2023-02-28T12:25:44.409Z,3.96
2023-02-28T12:28:12.082Z,3.97
2023-02-28T12:30:39.635Z,3.86
2023-02-28T12:33:08.725Z,3.52
2023-02-28T12:35:45.231Z,3.40
2023-02-28T12:38:14.130Z,3.58
2023-02-28T12:40:48.530Z,4.38
2023-02-28T12:43:17.093Z,4.52
2023-02-28T12:45:52.952Z,4.31
2023-02-28T12:48:32.721Z,4.27
2023-02-28T12:51:00.022Z,4.57
2023-02-28T12:53:47.794Z,5.05
2023-02-28T12:56:36.264Z,5.61
2023-02-28T12:59:08.308Z,5.22
2023-02-28T13:01:44.574Z,5.18
2023-02-28T13:04:26.617Z,5.53
2023-02-28T13:06:59.118Z,5.76
2023-02-28T13:09:25.647Z,5.57
2023-02-28T13:11:53.265Z,5.50
2023-02-28T13:14:21.201Z,5.32
2023-02-28T13:16:51.394Z,5.03
2023-02-28T13:19:18.239Z,4.55
2023-02-28T13:21:45.508Z,4.73
2023-02-28T13:24:12.814Z,4.70
2023-02-28T13:26:39.233Z,4.41
2023-02-28T13:29:23.861Z,4.76
2023-02-28T13:32:09.019Z,4.42
2023-02-28T13:34:50.552Z,4.24
2023-02-28T13:37:22.944Z,4.39
2023-02-28T13:40:08.151Z,4.75
2023-02-28T13:42:37.969Z,4.55
2023-02-28T13:45:04.357Z,4.66
2023-02-28T13:47:40.001Z,4.67
2023-02-28T13:50:34.611Z,4.34
2023-02-28T13:53:03.956Z,4.21
2023-02-28T13:55:30.350Z,4.04
2023-02-28T13:58:28.945Z,4.48
2023-02-28T14:01:07.826Z,4.36
2023-02-28T14:03:34.201Z,4.49
2023-02-28T14:06:23.208Z,4.24
2023-02-28T14:09:00.276Z,4.71
2023-02-28T14:11:40.376Z,5.06
2023-02-28T14:14:08.078Z,4.52
2023-02-28T14:16:42.108Z,4.52
2023-02-28T14:19:16.231Z,4.64
2023-02-28T14:22:13.592Z,4.94
2023-02-28T14:24:42.911Z,5.04
2023-02-28T14:27:22.671Z,4.74
2023-02-28T14:29:52.258Z,4.49
2023-02-28T14:32:36.357Z,4.61
2023-02-28T14:35:23.608Z,4.71
2023-02-28T14:37:50.736Z,4.02
2023-02-28T14:40:27.870Z,4.10
2023-02-28T14:42:59.225Z,3.76
2023-02-28T14:45:25.698Z,3.62
2023-02-28T14:47:52.451Z,3.52
2023-02-28T14:50:23.238Z,3.35
2023-02-28T14:52:52.879Z,3.16
2023-02-28T14:55:20.895Z,3.01
2023-02-28T14:58:07.707Z,3.07
2023-02-28T15:00:35.709Z,2.89
2023-02-28T15:03:18.919Z,2.98
2023-02-28T15:05:52.728Z,2.94
2023-02-28T15:08:20.914Z,2.81
2023-02-28T15:10:52.895Z,2.76
2023-02-28T15:13:19.838Z,2.77
2023-02-28T15:16:02.055Z,2.84
2023-02-28T15:18:42.630Z,2.83
2023-02-28T15:21:13.535Z,2.85
2023-02-28T15:23:40.016Z,2.79
2023-02-28T15:26:06.547Z,2.67
2023-02-28T15:28:33.120Z,2.77
2023-02-28T15:31:02.548Z,2.71
2023-02-28T15:33:30.282Z,2.67
2023-02-28T15:36:18.409Z,2.66
2023-02-28T15:38:44.956Z,2.58
2023-02-28T15:41:25.995Z,2.54
2023-02-28T15:44:38.425Z,2.46
2023-02-28T15:47:06.166Z,2.46
2023-02-28T15:49:44.949Z,2.42
2023-02-28T15:52:15.071Z,2.35
2023-02-28T15:54:41.624Z,2.31
2023-02-28T15:57:11.336Z,2.34
2023-02-28T15:59:38.807Z,2.28
2023-02-28T16:02:11.367Z,2.27
2023-02-28T16:04:38.288Z,2.27
2023-02-28T16:07:05.944Z,2.18
2023-02-28T16:09:34.401Z,2.14
2023-02-28T16:12:02.495Z,2.16
2023-02-28T16:14:31.056Z,2.14
2023-02-28T16:17:02.705Z,2.06
2023-02-28T16:19:29.208Z,2.03
2023-02-28T16:21:55.741Z,2.01
2023-02-28T16:24:22.234Z,2.02
2023-02-28T16:26:49.940Z,1.92
2023-02-28T16:29:25.153Z,1.81
2023-02-28T16:31:51.642Z,1.87
2023-02-28T16:34:18.197Z,1.85
2023-02-28T16:36:44.960Z,1.80
2023-02-28T16:39:11.431Z,1.79
2023-02-28T16:41:37.961Z,1.70
2023-02-28T16:44:04.752Z,1.69
2023-02-28T16:46:32.674Z,1.69
2023-02-28T16:48:59.168Z,1.52
2023-02-28T16:51:25.645Z,1.55
2023-02-28T16:53:52.191Z,1.38
2023-02-28T16:56:23.416Z,1.47
2023-02-28T16:58:50.245Z,1.31
2023-02-28T17:01:17.261Z,1.11
2023-02-28T17:03:43.855Z,1.08
2023-02-28T17:06:23.068Z,0.89
2023-02-28T17:08:50.497Z,0.94
2023-02-28T17:11:17.360Z,0.74
2023-02-28T17:13:43.970Z,0.65
2023-02-28T17:16:19.273Z,0.70
2023-02-28T17:18:45.819Z,0.72
2023-02-28T17:21:14.979Z,0.67
2023-02-28T17:23:41.454Z,0.45
2023-02-28T17:26:09.741Z,0.43
2023-02-28T17:28:36.224Z,0.42
2023-02-28T17:31:02.725Z,0.60
2023-02-28T17:33:29.197Z,0.51
2023-02-28T17:35:55.743Z,0.29
2023-02-28T17:38:23.815Z,0.33
2023-02-28T17:40:50.349Z,0.28
2023-02-28T17:43:17.048Z,0.39
2023-02-28T17:45:43.562Z,0.39
2023-02-28T17:48:13.663Z,0.19
2023-02-28T17:50:40.146Z,0.42
2023-02-28T17:53:06.613Z,0.13
2023-02-28T17:55:34.595Z,-0.23
2023-02-28T17:58:01.234Z,-0.19
2023-02-28T18:00:27.746Z,-0.09
2023-02-28T18:02:55.300Z,-0.15
2023-02-28T18:05:21.800Z,-0.04
2023-02-28T18:07:48.262Z,-0.07
2023-02-28T18:10:22.028Z,-0.36
2023-02-28T18:12:49.105Z,-0.45
2023-02-28T18:15:16.391Z,-0.49
2023-02-28T18:17:42.861Z,-0.49
2023-02-28T18:20:10.764Z,-0.48
2023-02-28T18:22:38.133Z,-0.62
2023-02-28T18:25:05.511Z,-0.90
2023-02-28T18:27:32.002Z,-0.89
2023-02-28T18:29:58.471Z,-1.01
2023-02-28T18:32:24.971Z,-0.93
2023-02-28T18:34:51.480Z,-0.99
2023-02-28T18:37:18.532Z,-0.83
2023-02-28T18:39:45.261Z,-0.86
2023-02-28T18:42:11.753Z,-0.83
2023-02-28T18:44:39.332Z,-0.73
2023-02-28T18:47:05.830Z,-0.78
2023-02-28T18:49:34.063Z,-0.86
2023-02-28T18:52:00.565Z,-0.80
2023-02-28T18:54:27.412Z,-0.85
2023-02-28T18:56:54.877Z,-1.02
2023-02-28T18:59:21.484Z,-0.97
2023-02-28T19:01:48.033Z,-1.21
2023-02-28T19:04:14.827Z,-1.11
2023-02-28T19:06:42.187Z,-1.02
2023-02-28T19:09:08.713Z,-1.10
2023-02-28T19:11:36.661Z,-0.79
2023-02-28T19:14:03.309Z,-0.92
2023-02-28T19:16:30.081Z,-0.82
2023-02-28T19:18:57.862Z,-0.91
2023-02-28T19:21:24.893Z,-0.77
2023-02-28T19:23:51.441Z,-0.88
2023-02-28T19:26:24.785Z,-0.92
2023-02-28T19:28:51.275Z,-0.99
2023-02-28T19:31:19.754Z,-0.95
2023-02-28T19:33:46.358Z,-0.94
2023-02-28T19:36:12.894Z,-0.81
2023-02-28T19:38:39.879Z,-0.82
2023-02-28T19:41:07.929Z,-0.88
2023-02-28T19:43:34.439Z,-0.67
2023-02-28T19:46:01.138Z,-0.79
2023-02-28T19:48:28.455Z,-0.74
2023-02-28T19:51:06.082Z,-0.77
2023-02-28T19:53:33.316Z,-1.02
2023-02-28T19:56:00.504Z,-0.77
2023-02-28T19:58:27.378Z,-0.93
2023-02-28T20:00:53.927Z,-0.94
2023-02-28T20:03:20.605Z,-0.93
2023-02-28T20:05:47.097Z,-0.88
2023-02-28T20:08:13.891Z,-0.92
2023-02-28T20:10:40.362Z,-1.14
2023-02-28T20:13:07.102Z,-1.29
2023-02-28T20:15:33.580Z,-1.32
2023-02-28T20:18:00.452Z,-1.27
2023-02-28T20:20:27.072Z,-1.29
2023-02-28T20:22:53.612Z,-1.29
2023-02-28T20:25:20.733Z,-1.30
2023-02-28T20:27:47.218Z,-1.30
2023-02-28T20:30:13.768Z,-1.25
2023-02-28T20:32:40.301Z,-1.32
2023-02-28T20:35:08.749Z,-1.47
2023-02-28T20:37:35.278Z,-1.29
2023-02-28T20:40:04.369Z,-1.39
2023-02-28T20:42:30.919Z,-1.58
2023-02-28T20:44:57.375Z,-1.61
2023-02-28T20:47:23.821Z,-1.62
2023-02-28T20:49:50.281Z,-1.51
2023-02-28T20:52:16.748Z,-1.57
2023-02-28T20:54:43.253Z,-1.41
2023-02-28T20:57:09.720Z,-1.45
2023-02-28T20:59:36.460Z,-1.65
2023-02-28T21:02:02.937Z,-1.67
2023-02-28T21:04:30.205Z,-1.58
2023-02-28T21:06:56.674Z,-1.69
2023-02-28T21:09:23.145Z,-1.69
2023-02-28T21:11:50.539Z,-1.77
2023-02-28T21:14:17.487Z,-1.82
2023-02-28T21:16:44.685Z,-2.09
2023-02-28T21:19:11.323Z,-2.18
2023-02-28T21:21:39.448Z,-2.29
2023-02-28T21:24:06.373Z,-2.01
2023-02-28T21:26:33.165Z,-1.95
2023-02-28T21:29:00.697Z,-1.65
2023-02-28T21:31:28.766Z,-1.46
2023-02-28T21:33:56.090Z,-1.64
2023-02-28T21:36:24.572Z,-1.60
2023-02-28T21:38:58.326Z,-1.49
2023-02-28T21:41:24.829Z,-1.58
2023-02-28T21:43:51.419Z,-1.68
2023-02-28T21:46:20.144Z,-1.95
2023-02-28T21:48:48.944Z,-2.13
2023-02-28T21:51:20.232Z,-2.23
2023-02-28T21:53:46.753Z,-2.08
2023-02-28T21:56:15.102Z,-2.04
2023-02-28T21:58:41.612Z,-2.16
2023-02-28T22:01:09.614Z,-1.94
2023-02-28T22:03:36.118Z,-2.20
2023-02-28T22:06:29.535Z,-2.00
2023-02-28T22:08:57.940Z,-1.94
2023-02-28T22:11:25.122Z,-1.89
2023-02-28T22:13:58.285Z,-2.01
2023-02-28T22:16:27.179Z,-2.20
2023-02-28T22:18:55.002Z,-2.22
2023-02-28T22:21:21.548Z,-2.13
2023-02-28T22:23:48.194Z,-2.29
2023-02-28T22:26:18.271Z,-2.32
2023-02-28T22:28:44.598Z,-2.31
2023-02-28T22:31:17.904Z,-2.32
2023-02-28T22:33:44.483Z,-2.00
2023-02-28T22:36:12.069Z,-2.01
2023-02-28T22:38:38.615Z,-2.02
2023-02-28T22:41:05.300Z,-2.11
2023-02-28T22:43:32.065Z,-1.86
2023-02-28T22:46:02.697Z,-2.14
2023-02-28T22:48:29.214Z,-2.23
2023-02-28T22:51:06.322Z,-2.06
2023-02-28T22:53:34.004Z,-2.04
2023-02-28T22:56:00.483Z,-1.83
2023-02-28T22:58:26.959Z,-1.73
2023-02-28T23:00:56.262Z,-1.66
2023-02-28T23:03:24.131Z,-1.81
2023-02-28T23:05:51.959Z,-1.98
2023-02-28T23:08:22.296Z,-2.09
2023-02-28T23:10:50.511Z,-2.21
2023-02-28T23:13:20.051Z,-2.18
2023-02-28T23:15:46.727Z,-2.11
2023-02-28T23:18:14.040Z,-2.18
2023-02-28T23:20:40.508Z,-2.32
2023-02-28T23:23:07.005Z,-2.40
2023-02-28T23:25:33.539Z,-2.32
2023-02-28T23:28:00.005Z,-2.08
2023-02-28T23:30:26.736Z,-2.03
2023-02-28T23:32:53.199Z,-2.06
2023-02-28T23:35:19.694Z,-2.16
2023-02-28T23:37:46.171Z,-2.27
2023-02-28T23:40:13.117Z,-2.46
2023-02-28T23:42:39.675Z,-2.21
2023-02-28T23:45:06.914Z,-2.20
2023-02-28T23:47:33.387Z,-2.50
2023-02-28T23:49:59.858Z,-2.78
2023-02-28T23:52:26.336Z,-2.63
2023-02-28T23:54:52.829Z,-2.70
2023-02-28T23:57:19.532Z,-2.41
2023-02-28T23:59:46.068Z,-2.30
